This is the latest recevied weather packets stored in our database for station/object DK4DO-10. If no packets are shown the sender has not sent any weather packets the latest 1 day(s).
| Time | Temp. | Humidity | Pressure | Rain* | Wind** | Luminosity | Snow |
|---|---|---|---|---|---|---|---|
| 1777753376 | 19.44° C | 45% | 1010 hPa | - | - | - | - |
| 1777752776 | 18.89° C | 47% | 1010.5 hPa | - | - | - | - |
| 1777752176 | 18.89° C | 47% | 1011 hPa | - | - | - | - |
| 1777751575 | 19.44° C | 47% | 1011.1 hPa | - | - | - | - |
| 1777750975 | 20° C | 47% | 1010.4 hPa | - | - | - | - |
| 1777750375 | 21.11° C | 44% | 1009.2 hPa | - | - | - | - |
| 1777749775 | 21.67° C | 45% | 1008.9 hPa | - | - | - | - |
| 1777749174 | 21.67° C | 44% | 1009 hPa | - | - | - | - |
| 1777748574 | 21.67° C | 43% | 1008.9 hPa | - | - | - | - |
| 1777747974 | 21.67° C | 43% | 1009.1 hPa | - | - | - | - |
| 1777747373 | 20.56° C | 45% | 1009.2 hPa | - | - | - | - |
| 1777746773 | 20.56° C | 46% | 1008.8 hPa | - | - | - | - |
| 1777746172 | 22.78° C | 41% | 1008.5 hPa | - | - | - | - |
| 1777745591 | 22.78° C | 41% | 1008.8 hPa | - | - | - | - |
| 1777744991 | 22.22° C | 43% | 1008.3 hPa | - | - | - | - |
| 1777744390 | 21.67° C | 45% | 1008.5 hPa | - | - | - | - |
| 1777743790 | 23.33° C | 39% | 1008.5 hPa | - | - | - | - |
| 1777743190 | 23.89° C | 38% | 1008.5 hPa | - | - | - | - |
| 1777742590 | 24.44° C | 40% | 1008.5 hPa | - | - | - | - |
| 1777741990 | 25° C | 39% | 1008.6 hPa | - | - | - | - |
| 1777741389 | 25° C | 37% | 1008.5 hPa | - | - | - | - |
| 1777740789 | 24.44° C | 36% | 1008.6 hPa | - | - | - | - |
| 1777740189 | 24.44° C | 35% | 1008.8 hPa | - | - | - | - |
| 1777739589 | 24.44° C | 33% | 1009.7 hPa | - | - | - | - |
| 1777738988 | 25.56° C | 32% | 1009.5 hPa | - | - | - | - |
* Rain since midnight (hover to see other rain measurements)
** Current wind speed in m/s (hover to see current wind gust speed)